createdAt,value
2019-02-07T00:00:24.143Z,0.60
2019-02-07T00:02:52.699Z,0.40
2019-02-07T00:05:21.322Z,0.40
2019-02-07T00:07:50.176Z,0.30
2019-02-07T00:10:20.400Z,0.30
2019-02-07T00:12:49.230Z,0.30
2019-02-07T00:15:18.623Z,0.20
2019-02-07T00:17:47.239Z,0.20
2019-02-07T00:20:20.162Z,0.20
2019-02-07T00:22:49.692Z,0.10
2019-02-07T00:25:18.400Z,0.10
2019-02-07T00:27:47.027Z,0.10
2019-02-07T00:30:20.532Z,0.10
2019-02-07T00:32:49.152Z,0.10
2019-02-07T00:35:18.084Z,0.10
2019-02-07T00:37:46.745Z,0.00
2019-02-07T00:40:22.629Z,0.10
2019-02-07T00:42:51.362Z,0.10
2019-02-07T00:45:20.695Z,0.10
2019-02-07T00:47:49.490Z,0.10
2019-02-07T00:50:18.994Z,0.10
2019-02-07T00:52:48.061Z,0.20
2019-02-07T00:55:21.055Z,0.10
2019-02-07T00:57:49.619Z,0.20
2019-02-07T01:00:23.700Z,0.10
2019-02-07T01:02:52.716Z,0.10
2019-02-07T01:05:22.615Z,0.10
2019-02-07T01:07:53.949Z,0.10
2019-02-07T01:10:27.284Z,0.10
2019-02-07T01:12:56.103Z,0.00
2019-02-07T01:15:26.026Z,0.00
2019-02-07T01:17:54.640Z,0.00
2019-02-07T01:20:23.251Z,0.00
2019-02-07T01:22:51.919Z,0.00
2019-02-07T01:25:22.035Z,0.00
2019-02-07T01:27:51.158Z,0.00
2019-02-07T01:30:22.041Z,0.10
2019-02-07T01:32:50.663Z,0.00
2019-02-07T01:35:19.382Z,0.00
2019-02-07T01:37:48.081Z,0.10
2019-02-07T01:40:18.973Z,0.10
2019-02-07T01:42:47.703Z,0.10
2019-02-07T01:45:24.206Z,0.10
2019-02-07T01:47:52.987Z,0.10
2019-02-07T01:50:25.962Z,0.10
2019-02-07T01:52:54.758Z,0.10
2019-02-07T01:55:23.472Z,0.10
2019-02-07T01:57:52.196Z,0.00
2019-02-07T02:00:21.360Z,0.10
2019-02-07T02:02:49.992Z,0.10
2019-02-07T02:05:19.629Z,0.10
2019-02-07T02:07:50.310Z,0.10
2019-02-07T02:10:27.197Z,0.20
2019-02-07T02:12:56.061Z,0.20
2019-02-07T02:15:25.388Z,0.20
2019-02-07T02:17:54.457Z,0.20
2019-02-07T02:20:24.999Z,0.20
2019-02-07T02:22:55.010Z,0.20
2019-02-07T02:25:23.727Z,0.30
2019-02-07T02:27:52.740Z,0.30
2019-02-07T02:30:33.194Z,0.30
2019-02-07T02:33:02.114Z,0.30
2019-02-07T02:35:31.025Z,0.30
2019-02-07T02:37:59.663Z,0.30
2019-02-07T02:40:35.938Z,0.30
2019-02-07T02:43:04.655Z,0.40
2019-02-07T02:45:37.448Z,0.40
2019-02-07T02:48:03.952Z,0.40
2019-02-07T02:50:32.588Z,0.40
2019-02-07T02:53:01.274Z,0.50
2019-02-07T02:55:37.669Z,0.50
2019-02-07T02:58:06.703Z,0.60
2019-02-07T03:00:43.442Z,0.70
2019-02-07T03:03:13.714Z,0.70
2019-02-07T03:05:43.978Z,0.90
2019-02-07T03:08:14.461Z,0.70
2019-02-07T03:10:44.725Z,1.03
2019-02-07T03:13:33.926Z,0.70
2019-02-07T03:16:04.051Z,1.00
2019-02-07T03:18:39.805Z,0.70
2019-02-07T03:21:25.032Z,0.90
2019-02-07T03:24:04.286Z,1.20
2019-02-07T03:26:37.606Z,1.00
2019-02-07T03:29:23.023Z,1.00
2019-02-07T03:32:01.909Z,0.93
2019-02-07T03:34:35.143Z,1.30
2019-02-07T03:37:14.463Z,1.33
2019-02-07T03:39:44.897Z,1.17
2019-02-07T03:42:24.119Z,2.37
2019-02-07T03:45:00.877Z,1.67
2019-02-07T03:47:36.959Z,2.10
2019-02-07T03:50:24.295Z,2.63
2019-02-07T03:53:00.292Z,2.00
2019-02-07T03:55:37.632Z,2.50
2019-02-07T03:58:07.899Z,3.87
2019-02-07T04:00:40.970Z,3.37
2019-02-07T04:03:14.192Z,3.43
2019-02-07T04:06:02.819Z,3.03
2019-02-07T04:08:51.244Z,2.60
2019-02-07T04:11:30.263Z,4.37
2019-02-07T04:14:00.582Z,3.93
2019-02-07T04:16:32.214Z,4.27
2019-02-07T04:19:05.874Z,2.83
2019-02-07T04:21:48.247Z,4.17
2019-02-07T04:24:24.710Z,4.17
2019-02-07T04:27:00.922Z,3.53
2019-02-07T04:29:31.151Z,3.13
2019-02-07T04:32:01.353Z,4.03
2019-02-07T04:34:31.614Z,4.00
2019-02-07T04:37:05.117Z,6.20
2019-02-07T04:39:40.696Z,4.40
2019-02-07T04:42:11.224Z,4.13
2019-02-07T04:44:59.895Z,4.63
2019-02-07T04:47:36.128Z,4.40
2019-02-07T04:50:12.047Z,3.77
2019-02-07T04:52:42.372Z,4.03
2019-02-07T04:55:12.616Z,4.70
2019-02-07T04:57:55.527Z,4.80
2019-02-07T05:00:40.796Z,5.17
2019-02-07T05:03:27.663Z,5.23
2019-02-07T05:06:03.751Z,5.37
2019-02-07T05:08:46.630Z,5.23
2019-02-07T05:11:16.902Z,5.90
2019-02-07T05:13:53.799Z,5.63
2019-02-07T05:16:43.638Z,6.13
2019-02-07T05:19:18.465Z,6.47
2019-02-07T05:21:54.870Z,6.10
2019-02-07T05:24:41.605Z,5.90
2019-02-07T05:27:11.871Z,5.10
2019-02-07T05:29:42.143Z,6.07
2019-02-07T05:32:28.933Z,5.40
2019-02-07T05:35:15.590Z,6.20
2019-02-07T05:37:45.907Z,5.03
2019-02-07T05:40:22.202Z,5.17
2019-02-07T05:42:58.410Z,5.50
2019-02-07T05:45:34.372Z,5.47
2019-02-07T05:48:04.697Z,6.73
2019-02-07T05:50:47.155Z,9.93
2019-02-07T05:53:33.028Z,8.50
2019-02-07T05:56:03.292Z,6.87
2019-02-07T05:58:50.238Z,5.90
2019-02-07T06:01:36.790Z,6.40
2019-02-07T06:04:07.287Z,5.40
2019-02-07T06:06:54.396Z,5.67
2019-02-07T06:09:36.800Z,7.97
2019-02-07T06:12:10.016Z,6.70
2019-02-07T06:14:43.788Z,7.13
2019-02-07T06:17:30.266Z,9.07
2019-02-07T06:20:03.185Z,5.67
2019-02-07T06:22:49.993Z,5.07
2019-02-07T06:25:20.291Z,6.63
2019-02-07T06:27:50.570Z,5.70
2019-02-07T06:30:21.063Z,5.93
2019-02-07T06:33:08.073Z,6.30
2019-02-07T06:35:44.399Z,6.07
2019-02-07T06:38:20.491Z,5.67
2019-02-07T06:40:53.544Z,6.23
2019-02-07T06:43:27.292Z,9.37
2019-02-07T06:46:03.400Z,7.43
2019-02-07T06:48:42.733Z,7.33
2019-02-07T06:51:16.091Z,5.05
2019-02-07T06:54:02.830Z,5.63
2019-02-07T06:56:51.281Z,6.47
2019-02-07T06:59:37.747Z,7.73
2019-02-07T07:02:24.636Z,7.70
2019-02-07T07:05:00.716Z,10.80
2019-02-07T07:07:47.637Z,7.90
2019-02-07T07:10:26.718Z,12.50
2019-02-07T07:13:02.662Z,9.33
2019-02-07T07:15:49.116Z,14.13
2019-02-07T07:18:30.848Z,12.03
2019-02-07T07:21:17.282Z,12.53
2019-02-07T07:24:04.091Z,10.70
2019-02-07T07:26:46.824Z,10.75
2019-02-07T07:29:17.083Z,11.23
2019-02-07T07:32:03.458Z,12.10
2019-02-07T07:34:49.894Z,11.05
2019-02-07T07:37:25.886Z,13.10
2019-02-07T07:40:11.119Z,13.70
2019-02-07T07:42:53.639Z,9.13
2019-02-07T07:45:23.834Z,14.07
2019-02-07T07:48:06.270Z,16.90
2019-02-07T07:50:36.529Z,6.97
2019-02-07T07:53:09.902Z,11.18
2019-02-07T07:55:43.051Z,14.90
2019-02-07T07:58:13.241Z,21.53
2019-02-07T08:00:49.757Z,10.27
2019-02-07T08:03:23.089Z,6.37
2019-02-07T08:05:53.592Z,3.37
2019-02-07T08:08:32.971Z,3.37
2019-02-07T08:11:06.981Z,5.63
2019-02-07T08:13:53.640Z,5.17
2019-02-07T08:16:23.818Z,4.90
2019-02-07T08:18:54.027Z,5.47
2019-02-07T08:21:49.540Z,3.90
2019-02-07T08:24:19.781Z,4.70
2019-02-07T08:27:08.510Z,3.60
2019-02-07T08:29:55.534Z,3.33
2019-02-07T08:32:26.061Z,3.70
2019-02-07T08:34:56.329Z,3.60
2019-02-07T08:37:26.528Z,4.63
2019-02-07T08:39:59.757Z,4.63
2019-02-07T08:42:38.803Z,4.37
2019-02-07T08:45:23.801Z,4.72
2019-02-07T08:48:06.005Z,4.30
2019-02-07T08:50:36.678Z,3.47
2019-02-07T08:53:23.042Z,2.55
2019-02-07T08:55:56.050Z,4.37
2019-02-07T08:58:26.239Z,1.75
2019-02-07T09:00:59.586Z,0.80
2019-02-07T09:03:29.888Z,2.40
2019-02-07T09:06:16.623Z,3.97
2019-02-07T09:08:52.960Z,3.40
2019-02-07T09:11:35.241Z,3.80
2019-02-07T09:14:15.396Z,4.57
2019-02-07T09:16:54.963Z,4.45
2019-02-07T09:19:40.718Z,3.92
2019-02-07T09:22:20.271Z,5.33
2019-02-07T09:25:07.277Z,5.60
2019-02-07T09:27:46.115Z,3.83
2019-02-07T09:30:28.400Z,3.12
2019-02-07T09:33:10.767Z,4.58
2019-02-07T09:35:41.055Z,3.20
2019-02-07T09:38:11.323Z,2.47
2019-02-07T09:40:53.969Z,3.70
2019-02-07T09:43:25.510Z,2.58
2019-02-07T09:45:55.957Z,3.62
2019-02-07T09:48:26.408Z,4.17
2019-02-07T09:50:59.561Z,5.60
2019-02-07T09:53:35.793Z,3.30
2019-02-07T09:56:06.218Z,3.70
2019-02-07T09:58:36.481Z,3.25
2019-02-07T10:03:54.365Z,3.30
2019-02-07T10:06:24.909Z,4.60
2019-02-07T10:09:03.787Z,3.12
2019-02-07T10:11:33.978Z,4.53
2019-02-07T10:14:22.445Z,5.60
2019-02-07T10:16:52.704Z,6.60
2019-02-07T10:19:28.594Z,9.35
2019-02-07T10:21:58.781Z,7.08
2019-02-07T10:24:31.771Z,7.20
2019-02-07T10:27:05.580Z,4.83
2019-02-07T10:29:35.835Z,4.87
2019-02-07T10:32:12.733Z,6.28
2019-02-07T10:34:42.986Z,7.42
2019-02-07T10:37:29.951Z,5.83
2019-02-07T10:40:00.351Z,6.30
2019-02-07T10:42:36.560Z,6.78
2019-02-07T10:45:12.317Z,6.42
2019-02-07T10:47:58.268Z,8.38
2019-02-07T10:50:34.265Z,6.55
2019-02-07T10:53:04.696Z,5.22
2019-02-07T10:55:37.703Z,4.60
2019-02-07T10:58:16.743Z,5.33
2019-02-07T11:01:03.591Z,4.75
2019-02-07T11:03:50.578Z,6.97
2019-02-07T11:06:37.239Z,3.60
2019-02-07T11:09:09.211Z,5.03
2019-02-07T11:11:55.722Z,4.67
2019-02-07T11:14:26.033Z,6.53
2019-02-07T11:17:11.417Z,6.85
2019-02-07T11:19:47.666Z,7.03
2019-02-07T11:22:22.936Z,8.18
2019-02-07T11:25:02.322Z,6.15
2019-02-07T11:27:35.501Z,7.33
2019-02-07T11:30:09.191Z,6.17
2019-02-07T11:32:39.444Z,5.35
2019-02-07T11:35:25.138Z,7.47
2019-02-07T11:37:58.504Z,3.90
2019-02-07T11:40:35.362Z,5.60
2019-02-07T11:43:20.904Z,5.42
2019-02-07T11:45:51.513Z,6.25
2019-02-07T11:48:21.986Z,6.10
2019-02-07T11:50:58.106Z,5.35
2019-02-07T11:53:37.573Z,6.20
2019-02-07T11:56:17.217Z,4.65
2019-02-07T11:58:56.692Z,5.53
2019-02-07T12:01:45.119Z,5.92
2019-02-07T12:04:24.219Z,6.20
2019-02-07T12:06:54.516Z,12.13
2019-02-07T12:09:41.237Z,37.05
2019-02-07T12:12:14.183Z,7.08
2019-02-07T12:14:44.475Z,6.17
2019-02-07T12:17:31.189Z,6.00
2019-02-07T12:20:01.532Z,5.00
2019-02-07T12:22:37.281Z,5.90
2019-02-07T12:25:24.534Z,8.03
2019-02-07T12:28:06.848Z,5.58
2019-02-07T12:30:39.789Z,4.65
2019-02-07T12:33:13.081Z,6.55
2019-02-07T12:36:03.706Z,4.50
2019-02-07T12:38:36.835Z,5.03
2019-02-07T12:41:14.470Z,3.40
2019-02-07T12:43:58.497Z,3.87
2019-02-07T12:46:28.823Z,4.62
2019-02-07T12:48:59.011Z,4.62
2019-02-07T12:51:32.209Z,5.67
2019-02-07T12:54:02.501Z,4.33
2019-02-07T12:56:41.800Z,4.95
2019-02-07T12:59:20.978Z,4.53
2019-02-07T13:01:51.549Z,3.83
2019-02-07T13:04:27.797Z,4.28
2019-02-07T13:07:14.718Z,4.20
2019-02-07T13:09:47.754Z,7.15
2019-02-07T13:12:23.782Z,5.65
2019-02-07T13:14:54.062Z,5.80
2019-02-07T13:17:40.448Z,6.50
2019-02-07T13:20:14.020Z,3.77
2019-02-07T13:22:50.165Z,3.70
2019-02-07T13:25:20.379Z,3.98
2019-02-07T13:27:50.525Z,3.75
2019-02-07T13:30:27.566Z,4.20
2019-02-07T13:33:00.551Z,3.37
2019-02-07T13:35:39.958Z,3.50
2019-02-07T13:38:25.450Z,3.83
2019-02-07T13:40:58.525Z,4.80
2019-02-07T13:43:37.593Z,4.53
2019-02-07T13:46:08.292Z,4.97
2019-02-07T13:48:41.796Z,3.10
2019-02-07T13:51:15.352Z,4.57
2019-02-07T13:53:45.614Z,5.45
2019-02-07T13:56:32.089Z,7.17
2019-02-07T13:59:17.358Z,6.90
2019-02-07T14:01:47.661Z,3.90
2019-02-07T14:04:32.917Z,4.73
2019-02-07T14:07:06.099Z,6.80
2019-02-07T14:09:36.357Z,4.70
2019-02-07T14:12:06.917Z,5.20
2019-02-07T14:14:37.216Z,3.65
2019-02-07T14:17:10.161Z,4.80
2019-02-07T14:19:40.413Z,4.55
2019-02-07T14:22:23.270Z,5.08
2019-02-07T14:25:09.636Z,5.57
2019-02-07T14:27:56.021Z,5.42
2019-02-07T14:30:28.911Z,7.45
2019-02-07T14:33:15.442Z,5.55
2019-02-07T14:35:48.629Z,6.77
2019-02-07T14:38:18.881Z,5.37
2019-02-07T14:40:58.164Z,3.87
2019-02-07T14:43:28.421Z,5.03
2019-02-07T14:45:58.613Z,5.10
2019-02-07T14:48:27.753Z,5.60
2019-02-07T14:50:56.363Z,5.65
2019-02-07T14:53:24.975Z,6.28
2019-02-07T14:55:53.738Z,7.33
2019-02-07T14:58:22.364Z,7.20
2019-02-07T15:00:51.015Z,4.63
2019-02-07T15:03:19.660Z,4.33
2019-02-07T15:05:48.278Z,4.13
2019-02-07T15:08:16.901Z,4.67
2019-02-07T15:10:45.567Z,4.80
2019-02-07T15:13:14.395Z,4.40
2019-02-07T15:15:43.021Z,4.67
2019-02-07T15:18:11.635Z,5.80
2019-02-07T15:20:40.716Z,3.93
2019-02-07T15:23:09.328Z,4.83
2019-02-07T15:25:37.980Z,5.80
2019-02-07T15:28:06.591Z,4.47
2019-02-07T15:30:35.222Z,5.30
2019-02-07T15:33:03.888Z,5.53
2019-02-07T15:35:35.304Z,5.67
2019-02-07T15:38:04.022Z,8.00
2019-02-07T15:40:32.757Z,8.33
2019-02-07T15:43:01.379Z,8.53
2019-02-07T15:45:30.312Z,9.77
2019-02-07T15:47:59.167Z,9.60
2019-02-07T15:50:37.801Z,9.73
2019-02-07T15:53:00.323Z,10.00
2019-02-07T15:55:29.109Z,9.00
2019-02-07T15:57:58.036Z,9.10
2019-02-07T16:00:29.413Z,8.73
2019-02-07T16:02:59.666Z,7.83
2019-02-07T16:05:28.306Z,7.50
2019-02-07T16:07:56.955Z,11.23
2019-02-07T16:10:25.984Z,10.47
2019-02-07T16:12:54.606Z,11.13
2019-02-07T16:15:23.433Z,9.23
2019-02-07T16:17:52.086Z,8.27
2019-02-07T16:20:24.398Z,9.23
2019-02-07T16:22:53.012Z,4.33
2019-02-07T16:25:21.828Z,8.07
2019-02-07T16:27:50.498Z,9.03
2019-02-07T16:30:21.210Z,8.20
2019-02-07T16:32:50.172Z,9.10
2019-02-07T16:35:20.525Z,9.60
2019-02-07T16:37:50.061Z,9.50
2019-02-07T16:40:22.073Z,7.93
2019-02-07T16:42:51.054Z,10.50
2019-02-07T16:45:26.740Z,10.43
2019-02-07T16:47:55.369Z,8.73
2019-02-07T16:50:29.641Z,10.43
2019-02-07T16:52:58.434Z,10.83
2019-02-07T16:55:27.199Z,11.90
2019-02-07T16:57:55.897Z,8.00
2019-02-07T17:00:29.651Z,7.80
2019-02-07T17:02:58.528Z,8.60
2019-02-07T17:05:27.564Z,11.30
2019-02-07T17:07:56.441Z,15.00
2019-02-07T17:10:41.173Z,18.47
2019-02-07T17:13:11.795Z,18.83
2019-02-07T17:15:40.533Z,19.90
2019-02-07T17:18:09.157Z,15.17
2019-02-07T17:20:38.326Z,16.50
2019-02-07T17:23:07.163Z,16.63
2019-02-07T17:25:35.799Z,15.77
2019-02-07T17:28:04.789Z,15.50
2019-02-07T17:30:34.006Z,15.10
2019-02-07T17:33:02.627Z,16.03
2019-02-07T17:35:32.955Z,14.70
2019-02-07T17:38:01.665Z,13.73
2019-02-07T17:40:33.284Z,13.73
2019-02-07T17:43:01.965Z,11.43
2019-02-07T17:45:31.656Z,16.53
2019-02-07T17:48:00.288Z,17.43
2019-02-07T17:50:37.340Z,17.47
2019-02-07T17:53:08.374Z,15.73
2019-02-07T17:55:36.991Z,15.40
2019-02-07T17:58:06.927Z,15.00
2019-02-07T18:00:48.935Z,12.57
2019-02-07T18:03:17.780Z,15.13
2019-02-07T18:05:46.410Z,13.13
2019-02-07T18:08:15.041Z,12.63
2019-02-07T18:10:43.793Z,11.70
2019-02-07T18:13:12.463Z,11.97
2019-02-07T18:15:41.096Z,11.17
2019-02-07T18:18:09.824Z,10.93
2019-02-07T18:20:38.460Z,6.93
2019-02-07T18:23:07.076Z,8.83
2019-02-07T18:25:35.756Z,9.07
2019-02-07T18:28:04.837Z,8.10
2019-02-07T18:30:33.458Z,9.77
2019-02-07T18:33:02.113Z,8.23
2019-02-07T18:35:30.845Z,7.90
2019-02-07T18:37:59.426Z,9.23
2019-02-07T18:40:29.575Z,9.97
2019-02-07T18:42:58.195Z,9.27
2019-02-07T18:45:26.836Z,10.33
2019-02-07T18:47:55.498Z,9.20
2019-02-07T18:50:26.824Z,10.20
2019-02-07T18:52:55.452Z,10.97
2019-02-07T18:55:24.182Z,9.17
2019-02-07T18:57:53.020Z,10.53
2019-02-07T19:00:24.832Z,9.27
2019-02-07T19:02:53.666Z,9.33
2019-02-07T19:05:23.795Z,9.77
2019-02-07T19:07:52.940Z,10.43
2019-02-07T19:10:24.147Z,10.23
2019-02-07T19:12:52.767Z,9.83
2019-02-07T19:15:44.131Z,8.93
2019-02-07T19:18:12.780Z,11.23
2019-02-07T19:20:41.397Z,10.70
2019-02-07T19:23:10.060Z,11.53
2019-02-07T19:25:39.100Z,11.17
2019-02-07T19:28:08.103Z,12.63
2019-02-07T19:30:36.918Z,11.90
2019-02-07T19:33:06.050Z,10.90
2019-02-07T19:35:34.671Z,12.13
2019-02-07T19:38:03.450Z,12.47
2019-02-07T19:40:32.074Z,11.90
2019-02-07T19:43:00.623Z,11.80
2019-02-07T19:45:29.682Z,12.50
2019-02-07T19:47:58.301Z,12.23
2019-02-07T19:50:27.938Z,12.10
2019-02-07T19:52:56.802Z,11.73
2019-02-07T19:55:31.106Z,12.33
2019-02-07T19:57:59.724Z,11.93
2019-02-07T20:00:31.036Z,13.40
2019-02-07T20:03:00.037Z,14.33
2019-02-07T20:05:29.162Z,14.13
2019-02-07T20:07:57.820Z,15.13
2019-02-07T20:10:30.010Z,15.70
2019-02-07T20:12:59.441Z,15.07
2019-02-07T20:15:37.005Z,16.40
2019-02-07T20:18:07.934Z,16.43
2019-02-07T20:20:36.760Z,16.03
2019-02-07T20:23:05.423Z,16.30
2019-02-07T20:25:34.241Z,17.53
2019-02-07T20:28:02.800Z,16.90
2019-02-07T20:30:39.732Z,17.33
2019-02-07T20:33:08.865Z,16.60
2019-02-07T20:35:37.584Z,16.50
2019-02-07T20:38:07.251Z,16.03
2019-02-07T20:40:35.873Z,17.50
2019-02-07T20:43:05.471Z,16.40
2019-02-07T20:45:34.095Z,16.10
2019-02-07T20:48:02.717Z,15.80
2019-02-07T20:50:31.337Z,16.43
2019-02-07T20:53:00.005Z,16.47
2019-02-07T20:55:28.702Z,16.80
2019-02-07T20:57:57.354Z,17.50
2019-02-07T21:00:37.690Z,16.73
2019-02-07T21:03:06.629Z,15.20
2019-02-07T21:05:35.364Z,13.93
2019-02-07T21:08:04.499Z,13.33
2019-02-07T21:10:35.564Z,14.23
2019-02-07T21:13:04.966Z,15.77
2019-02-07T21:15:34.418Z,17.73
2019-02-07T21:18:02.976Z,18.30
2019-02-07T21:20:32.118Z,17.63
2019-02-07T21:23:01.895Z,15.77
2019-02-07T21:25:44.955Z,17.03
2019-02-07T21:28:13.835Z,14.13
2019-02-07T21:30:42.551Z,12.70
2019-02-07T21:33:11.187Z,11.50
2019-02-07T21:35:39.862Z,11.07
2019-02-07T21:38:08.787Z,11.70
2019-02-07T21:40:37.505Z,12.73
2019-02-07T21:43:07.238Z,13.37
2019-02-07T21:45:35.877Z,13.80
2019-02-07T21:48:06.805Z,14.07
2019-02-07T21:50:35.488Z,13.43
2019-02-07T21:53:11.570Z,13.70
2019-02-07T21:55:40.454Z,16.63
2019-02-07T21:58:09.874Z,15.10
2019-02-07T22:00:40.698Z,12.80
2019-02-07T22:03:10.961Z,14.43
2019-02-07T22:05:39.586Z,13.50
2019-02-07T22:08:09.013Z,14.23
2019-02-07T22:10:37.886Z,14.40
2019-02-07T22:13:07.021Z,13.10
2019-02-07T22:15:35.645Z,13.10
2019-02-07T22:18:05.309Z,11.70
2019-02-07T22:20:33.944Z,12.50
2019-02-07T22:23:02.502Z,12.97
2019-02-07T22:25:31.120Z,13.43
2019-02-07T22:27:59.800Z,15.17
2019-02-07T22:30:34.028Z,17.87
2019-02-07T22:33:02.681Z,20.83
2019-02-07T22:35:31.506Z,22.87
2019-02-07T22:38:00.725Z,19.40
2019-02-07T22:40:29.494Z,20.57
2019-02-07T22:42:59.622Z,18.43
2019-02-07T22:45:28.526Z,21.30
2019-02-07T22:47:57.296Z,19.47
2019-02-07T22:50:30.306Z,21.20
2019-02-07T22:53:00.527Z,19.63
2019-02-07T22:55:29.398Z,20.00
2019-02-07T22:57:58.034Z,22.20
2019-02-07T23:00:34.589Z,21.43
2019-02-07T23:03:11.862Z,17.27
2019-02-07T23:05:40.527Z,17.63
2019-02-07T23:08:09.456Z,18.30
2019-02-07T23:10:38.090Z,17.67
2019-02-07T23:13:08.366Z,18.77
2019-02-07T23:15:37.320Z,19.90
2019-02-07T23:18:08.319Z,20.73
2019-02-07T23:20:37.174Z,25.17
2019-02-07T23:23:08.379Z,24.37
2019-02-07T23:25:37.503Z,19.43
2019-02-07T23:28:06.991Z,21.90
2019-02-07T23:30:36.113Z,24.43
2019-02-07T23:33:05.641Z,29.00
2019-02-07T23:35:34.226Z,26.87
2019-02-07T23:38:02.952Z,28.17
2019-02-07T23:40:31.576Z,27.53
2019-02-07T23:43:00.544Z,29.77
2019-02-07T23:45:29.172Z,25.03
2019-02-07T23:47:57.798Z,26.73
2019-02-07T23:50:26.467Z,26.97
2019-02-07T23:52:55.085Z,25.07
2019-02-07T23:55:23.723Z,25.33
2019-02-07T23:57:52.382Z,20.53
